sensor_id;sensor_type;location;lat;lon;timestamp;P1;durP1;ratioP1;P2;durP2;ratioP2
22282;SDS011;11310;51.528;21.204;2022-10-20T00:01:33;7.05;;;2.75;;
22282;SDS011;11310;51.528;21.204;2022-10-20T00:04:02;8.32;;;3.55;;
22282;SDS011;11310;51.528;21.204;2022-10-20T00:06:31;8.02;;;2.80;;
22282;SDS011;11310;51.528;21.204;2022-10-20T00:09:02;7.43;;;3.53;;
22282;SDS011;11310;51.528;21.204;2022-10-20T00:11:31;5.30;;;2.72;;
22282;SDS011;11310;51.528;21.204;2022-10-20T00:14:02;10.18;;;3.08;;
22282;SDS011;11310;51.528;21.204;2022-10-20T00:16:33;7.75;;;3.08;;
22282;SDS011;11310;51.528;21.204;2022-10-20T00:19:03;5.80;;;2.72;;
22282;SDS011;11310;51.528;21.204;2022-10-20T00:21:32;10.18;;;3.17;;
22282;SDS011;11310;51.528;21.204;2022-10-20T00:24:02;6.95;;;2.90;;
22282;SDS011;11310;51.528;21.204;2022-10-20T00:26:31;8.75;;;3.05;;
22282;SDS011;11310;51.528;21.204;2022-10-20T00:29:00;7.35;;;2.97;;
22282;SDS011;11310;51.528;21.204;2022-10-20T00:31:31;13.65;;;3.20;;
22282;SDS011;11310;51.528;21.204;2022-10-20T00:34:00;7.88;;;3.17;;
22282;SDS011;11310;51.528;21.204;2022-10-20T00:36:28;7.03;;;3.28;;
22282;SDS011;11310;51.528;21.204;2022-10-20T00:39:01;12.30;;;3.55;;
22282;SDS011;11310;51.528;21.204;2022-10-20T00:41:31;9.05;;;3.05;;
22282;SDS011;11310;51.528;21.204;2022-10-20T00:44:02;14.27;;;3.33;;
22282;SDS011;11310;51.528;21.204;2022-10-20T00:46:47;7.68;;;3.03;;
22282;SDS011;11310;51.528;21.204;2022-10-20T00:49:17;8.93;;;3.20;;
22282;SDS011;11310;51.528;21.204;2022-10-20T00:51:49;6.55;;;2.92;;
22282;SDS011;11310;51.528;21.204;2022-10-20T00:54:19;7.00;;;3.05;;
22282;SDS011;11310;51.528;21.204;2022-10-20T00:56:51;12.18;;;3.40;;
22282;SDS011;11310;51.528;21.204;2022-10-20T00:59:24;8.35;;;3.08;;
22282;SDS011;11310;51.528;21.204;2022-10-20T01:01:55;8.18;;;3.28;;
22282;SDS011;11310;51.528;21.204;2022-10-20T01:04:26;7.78;;;2.72;;
22282;SDS011;11310;51.528;21.204;2022-10-20T01:09:26;5.85;;;2.80;;
22282;SDS011;11310;51.528;21.204;2022-10-20T01:11:56;8.85;;;2.80;;
22282;SDS011;11310;51.528;21.204;2022-10-20T01:14:33;8.13;;;3.53;;
22282;SDS011;11310;51.528;21.204;2022-10-20T01:17:10;7.15;;;2.60;;
22282;SDS011;11310;51.528;21.204;2022-10-20T01:19:55;10.35;;;3.42;;
22282;SDS011;11310;51.528;21.204;2022-10-20T01:22:50;5.68;;;2.67;;
22282;SDS011;11310;51.528;21.204;2022-10-20T01:25:32;10.05;;;3.30;;
22282;SDS011;11310;51.528;21.204;2022-10-20T01:28:15;9.68;;;3.15;;
22282;SDS011;11310;51.528;21.204;2022-10-20T01:30:51;6.63;;;2.78;;
22282;SDS011;11310;51.528;21.204;2022-10-20T01:33:29;4.63;;;2.25;;
22282;SDS011;11310;51.528;21.204;2022-10-20T01:36:06;5.85;;;2.67;;
22282;SDS011;11310;51.528;21.204;2022-10-20T01:38:42;7.60;;;2.70;;
22282;SDS011;11310;51.528;21.204;2022-10-20T01:41:16;7.15;;;2.45;;
22282;SDS011;11310;51.528;21.204;2022-10-20T01:43:50;6.38;;;3.10;;
22282;SDS011;11310;51.528;21.204;2022-10-20T01:46:21;8.75;;;3.25;;
22282;SDS011;11310;51.528;21.204;2022-10-20T01:48:54;6.78;;;2.63;;
22282;SDS011;11310;51.528;21.204;2022-10-20T01:51:23;6.78;;;2.67;;
22282;SDS011;11310;51.528;21.204;2022-10-20T01:53:52;7.15;;;3.17;;
22282;SDS011;11310;51.528;21.204;2022-10-20T01:56:23;7.03;;;2.70;;
22282;SDS011;11310;51.528;21.204;2022-10-20T01:59:19;6.43;;;2.78;;
22282;SDS011;11310;51.528;21.204;2022-10-20T02:02:04;9.18;;;2.80;;
22282;SDS011;11310;51.528;21.204;2022-10-20T02:04:48;7.95;;;2.97;;
22282;SDS011;11310;51.528;21.204;2022-10-20T02:07:28;6.00;;;2.42;;
22282;SDS011;11310;51.528;21.204;2022-10-20T02:09:59;5.55;;;2.58;;
22282;SDS011;11310;51.528;21.204;2022-10-20T02:12:33;4.47;;;2.58;;
22282;SDS011;11310;51.528;21.204;2022-10-20T02:15:07;5.40;;;2.40;;
22282;SDS011;11310;51.528;21.204;2022-10-20T02:17:43;7.72;;;3.10;;
22282;SDS011;11310;51.528;21.204;2022-10-20T02:20:13;10.93;;;2.70;;
22282;SDS011;11310;51.528;21.204;2022-10-20T02:22:44;9.23;;;3.00;;
22282;SDS011;11310;51.528;21.204;2022-10-20T02:25:12;7.25;;;2.90;;
22282;SDS011;11310;51.528;21.204;2022-10-20T02:27:42;6.57;;;2.70;;
22282;SDS011;11310;51.528;21.204;2022-10-20T02:30:16;6.93;;;2.90;;
22282;SDS011;11310;51.528;21.204;2022-10-20T02:32:46;7.72;;;2.83;;
22282;SDS011;11310;51.528;21.204;2022-10-20T02:35:20;7.60;;;2.83;;
22282;SDS011;11310;51.528;21.204;2022-10-20T02:37:50;11.05;;;2.45;;
22282;SDS011;11310;51.528;21.204;2022-10-20T02:40:18;5.10;;;2.70;;
22282;SDS011;11310;51.528;21.204;2022-10-20T02:42:48;7.50;;;2.88;;
22282;SDS011;11310;51.528;21.204;2022-10-20T02:45:21;6.32;;;2.70;;
22282;SDS011;11310;51.528;21.204;2022-10-20T02:47:49;6.70;;;2.78;;
22282;SDS011;11310;51.528;21.204;2022-10-20T02:50:18;8.00;;;3.00;;
22282;SDS011;11310;51.528;21.204;2022-10-20T02:52:46;7.63;;;3.13;;
22282;SDS011;11310;51.528;21.204;2022-10-20T02:55:15;6.63;;;2.97;;
22282;SDS011;11310;51.528;21.204;2022-10-20T02:57:48;7.43;;;2.85;;
22282;SDS011;11310;51.528;21.204;2022-10-20T03:00:22;6.13;;;2.70;;
22282;SDS011;11310;51.528;21.204;2022-10-20T03:02:55;7.22;;;2.63;;
22282;SDS011;11310;51.528;21.204;2022-10-20T03:05:23;6.47;;;2.58;;
22282;SDS011;11310;51.528;21.204;2022-10-20T03:07:52;10.38;;;3.00;;
22282;SDS011;11310;51.528;21.204;2022-10-20T03:10:21;8.20;;;2.55;;
22282;SDS011;11310;51.528;21.204;2022-10-20T03:12:50;8.27;;;2.90;;
22282;SDS011;11310;51.528;21.204;2022-10-20T03:15:19;6.05;;;2.45;;
22282;SDS011;11310;51.528;21.204;2022-10-20T03:17:48;8.63;;;2.88;;
22282;SDS011;11310;51.528;21.204;2022-10-20T03:20:17;5.03;;;2.60;;
22282;SDS011;11310;51.528;21.204;2022-10-20T03:22:46;7.57;;;2.90;;
22282;SDS011;11310;51.528;21.204;2022-10-20T03:25:15;9.10;;;2.78;;
22282;SDS011;11310;51.528;21.204;2022-10-20T03:27:43;7.95;;;3.33;;
22282;SDS011;11310;51.528;21.204;2022-10-20T03:30:12;11.30;;;3.40;;
22282;SDS011;11310;51.528;21.204;2022-10-20T03:32:41;11.75;;;3.00;;
22282;SDS011;11310;51.528;21.204;2022-10-20T03:35:11;7.70;;;3.10;;
22282;SDS011;11310;51.528;21.204;2022-10-20T03:37:40;6.82;;;2.80;;
22282;SDS011;11310;51.528;21.204;2022-10-20T03:40:08;7.70;;;3.15;;
22282;SDS011;11310;51.528;21.204;2022-10-20T03:42:37;6.85;;;3.17;;
22282;SDS011;11310;51.528;21.204;2022-10-20T03:45:06;6.03;;;2.67;;
22282;SDS011;11310;51.528;21.204;2022-10-20T03:47:38;7.75;;;3.80;;
22282;SDS011;11310;51.528;21.204;2022-10-20T03:50:06;10.60;;;3.05;;
22282;SDS011;11310;51.528;21.204;2022-10-20T03:52:37;9.43;;;2.78;;
22282;SDS011;11310;51.528;21.204;2022-10-20T03:55:05;6.72;;;3.58;;
22282;SDS011;11310;51.528;21.204;2022-10-20T03:57:35;5.35;;;2.63;;
22282;SDS011;11310;51.528;21.204;2022-10-20T04:00:04;7.38;;;2.95;;
22282;SDS011;11310;51.528;21.204;2022-10-20T04:02:41;7.22;;;2.85;;
22282;SDS011;11310;51.528;21.204;2022-10-20T04:05:12;7.53;;;3.10;;
22282;SDS011;11310;51.528;21.204;2022-10-20T04:07:43;6.10;;;2.92;;
22282;SDS011;11310;51.528;21.204;2022-10-20T04:10:13;6.78;;;2.88;;
22282;SDS011;11310;51.528;21.204;2022-10-20T04:12:43;9.23;;;2.77;;
22282;SDS011;11310;51.528;21.204;2022-10-20T04:15:12;8.40;;;3.75;;
22282;SDS011;11310;51.528;21.204;2022-10-20T04:17:40;9.00;;;3.15;;
22282;SDS011;11310;51.528;21.204;2022-10-20T04:20:10;8.63;;;3.63;;
22282;SDS011;11310;51.528;21.204;2022-10-20T04:22:39;9.68;;;3.80;;
22282;SDS011;11310;51.528;21.204;2022-10-20T04:25:09;7.80;;;3.63;;
22282;SDS011;11310;51.528;21.204;2022-10-20T04:27:38;9.80;;;3.70;;
22282;SDS011;11310;51.528;21.204;2022-10-20T04:30:09;7.75;;;3.00;;
22282;SDS011;11310;51.528;21.204;2022-10-20T04:32:38;6.70;;;2.95;;
22282;SDS011;11310;51.528;21.204;2022-10-20T04:35:07;8.00;;;2.97;;
22282;SDS011;11310;51.528;21.204;2022-10-20T04:37:36;6.47;;;2.95;;
22282;SDS011;11310;51.528;21.204;2022-10-20T04:40:06;8.15;;;3.67;;
22282;SDS011;11310;51.528;21.204;2022-10-20T04:42:37;6.43;;;3.58;;
22282;SDS011;11310;51.528;21.204;2022-10-20T04:45:06;7.22;;;3.13;;
22282;SDS011;11310;51.528;21.204;2022-10-20T04:47:36;7.78;;;2.90;;
22282;SDS011;11310;51.528;21.204;2022-10-20T04:50:06;6.70;;;2.60;;
22282;SDS011;11310;51.528;21.204;2022-10-20T04:52:41;9.48;;;3.20;;
22282;SDS011;11310;51.528;21.204;2022-10-20T04:55:14;7.93;;;3.20;;
22282;SDS011;11310;51.528;21.204;2022-10-20T04:57:49;6.65;;;3.00;;
22282;SDS011;11310;51.528;21.204;2022-10-20T05:00:18;8.15;;;3.58;;
22282;SDS011;11310;51.528;21.204;2022-10-20T05:02:50;12.32;;;4.78;;
22282;SDS011;11310;51.528;21.204;2022-10-20T05:05:27;13.77;;;4.40;;
22282;SDS011;11310;51.528;21.204;2022-10-20T05:07:56;12.88;;;4.55;;
22282;SDS011;11310;51.528;21.204;2022-10-20T05:10:26;10.77;;;4.25;;
22282;SDS011;11310;51.528;21.204;2022-10-20T05:13:06;9.23;;;4.13;;
22282;SDS011;11310;51.528;21.204;2022-10-20T05:15:34;9.40;;;3.83;;
22282;SDS011;11310;51.528;21.204;2022-10-20T05:18:05;10.10;;;3.80;;
22282;SDS011;11310;51.528;21.204;2022-10-20T05:20:39;8.20;;;3.20;;
22282;SDS011;11310;51.528;21.204;2022-10-20T05:23:35;8.77;;;3.28;;
22282;SDS011;11310;51.528;21.204;2022-10-20T05:26:04;9.23;;;3.83;;
22282;SDS011;11310;51.528;21.204;2022-10-20T05:28:38;8.00;;;3.45;;
22282;SDS011;11310;51.528;21.204;2022-10-20T05:31:10;12.57;;;4.80;;
22282;SDS011;11310;51.528;21.204;2022-10-20T05:33:42;13.07;;;4.90;;
22282;SDS011;11310;51.528;21.204;2022-10-20T05:36:13;16.98;;;4.97;;
22282;SDS011;11310;51.528;21.204;2022-10-20T05:38:47;11.07;;;4.97;;
22282;SDS011;11310;51.528;21.204;2022-10-20T05:41:18;11.23;;;4.28;;
22282;SDS011;11310;51.528;21.204;2022-10-20T05:43:51;13.00;;;5.20;;
22282;SDS011;11310;51.528;21.204;2022-10-20T05:46:23;13.52;;;6.03;;
22282;SDS011;11310;51.528;21.204;2022-10-20T05:48:57;18.75;;;6.18;;
22282;SDS011;11310;51.528;21.204;2022-10-20T05:51:27;22.25;;;7.00;;
22282;SDS011;11310;51.528;21.204;2022-10-20T05:53:58;17.20;;;7.45;;
22282;SDS011;11310;51.528;21.204;2022-10-20T05:56:29;16.00;;;5.85;;
22282;SDS011;11310;51.528;21.204;2022-10-20T06:01:33;13.15;;;5.80;;
22282;SDS011;11310;51.528;21.204;2022-10-20T06:04:15;16.27;;;5.05;;
22282;SDS011;11310;51.528;21.204;2022-10-20T06:06:47;18.08;;;5.22;;
22282;SDS011;11310;51.528;21.204;2022-10-20T06:09:20;11.05;;;4.65;;
22282;SDS011;11310;51.528;21.204;2022-10-20T06:11:50;10.27;;;5.03;;
22282;SDS011;11310;51.528;21.204;2022-10-20T06:14:25;10.30;;;4.53;;
22282;SDS011;11310;51.528;21.204;2022-10-20T06:16:54;9.07;;;4.63;;
22282;SDS011;11310;51.528;21.204;2022-10-20T06:19:24;9.20;;;4.18;;
22282;SDS011;11310;51.528;21.204;2022-10-20T06:21:53;11.93;;;4.45;;
22282;SDS011;11310;51.528;21.204;2022-10-20T06:24:34;9.77;;;4.35;;
22282;SDS011;11310;51.528;21.204;2022-10-20T06:27:02;9.32;;;4.15;;
22282;SDS011;11310;51.528;21.204;2022-10-20T06:29:32;14.18;;;4.22;;
22282;SDS011;11310;51.528;21.204;2022-10-20T06:32:10;8.93;;;4.57;;
22282;SDS011;11310;51.528;21.204;2022-10-20T06:34:40;9.10;;;3.90;;
22282;SDS011;11310;51.528;21.204;2022-10-20T06:37:12;8.40;;;4.00;;
22282;SDS011;11310;51.528;21.204;2022-10-20T06:39:41;8.80;;;4.07;;
22282;SDS011;11310;51.528;21.204;2022-10-20T06:42:16;10.10;;;3.90;;
22282;SDS011;11310;51.528;21.204;2022-10-20T06:44:47;8.52;;;3.67;;
22282;SDS011;11310;51.528;21.204;2022-10-20T06:47:15;8.13;;;4.20;;
22282;SDS011;11310;51.528;21.204;2022-10-20T06:49:46;10.57;;;3.47;;
22282;SDS011;11310;51.528;21.204;2022-10-20T06:52:17;11.60;;;4.93;;
22282;SDS011;11310;51.528;21.204;2022-10-20T06:54:46;9.88;;;5.38;;
22282;SDS011;11310;51.528;21.204;2022-10-20T06:57:17;10.18;;;4.97;;
22282;SDS011;11310;51.528;21.204;2022-10-20T06:59:57;9.85;;;5.18;;
22282;SDS011;11310;51.528;21.204;2022-10-20T07:02:28;13.75;;;6.30;;
22282;SDS011;11310;51.528;21.204;2022-10-20T07:05:00;13.57;;;5.55;;
22282;SDS011;11310;51.528;21.204;2022-10-20T07:07:29;13.70;;;6.38;;
22282;SDS011;11310;51.528;21.204;2022-10-20T07:09:58;15.60;;;6.70;;
22282;SDS011;11310;51.528;21.204;2022-10-20T07:12:32;15.50;;;5.57;;
22282;SDS011;11310;51.528;21.204;2022-10-20T07:15:03;12.95;;;5.68;;
22282;SDS011;11310;51.528;21.204;2022-10-20T07:17:34;12.23;;;4.90;;
22282;SDS011;11310;51.528;21.204;2022-10-20T07:20:04;16.08;;;6.30;;
22282;SDS011;11310;51.528;21.204;2022-10-20T07:22:41;11.80;;;5.85;;
22282;SDS011;11310;51.528;21.204;2022-10-20T07:25:18;13.35;;;5.78;;
22282;SDS011;11310;51.528;21.204;2022-10-20T07:27:49;14.50;;;6.20;;
22282;SDS011;11310;51.528;21.204;2022-10-20T07:30:19;12.82;;;5.82;;
22282;SDS011;11310;51.528;21.204;2022-10-20T07:32:48;12.30;;;5.95;;
22282;SDS011;11310;51.528;21.204;2022-10-20T07:35:17;11.25;;;5.75;;
22282;SDS011;11310;51.528;21.204;2022-10-20T07:37:46;15.25;;;6.22;;
22282;SDS011;11310;51.528;21.204;2022-10-20T07:40:15;12.88;;;6.28;;
22282;SDS011;11310;51.528;21.204;2022-10-20T07:42:44;13.35;;;5.88;;
22282;SDS011;11310;51.528;21.204;2022-10-20T07:45:15;14.18;;;5.97;;
22282;SDS011;11310;51.528;21.204;2022-10-20T07:47:45;13.80;;;5.32;;
22282;SDS011;11310;51.528;21.204;2022-10-20T07:50:16;15.48;;;5.18;;
22282;SDS011;11310;51.528;21.204;2022-10-20T07:52:48;16.45;;;5.53;;
22282;SDS011;11310;51.528;21.204;2022-10-20T07:55:19;13.07;;;5.22;;
22282;SDS011;11310;51.528;21.204;2022-10-20T07:58:04;14.05;;;6.07;;
22282;SDS011;11310;51.528;21.204;2022-10-20T08:00:33;15.60;;;5.78;;
22282;SDS011;11310;51.528;21.204;2022-10-20T08:03:04;14.05;;;5.40;;
22282;SDS011;11310;51.528;21.204;2022-10-20T08:05:33;13.73;;;5.57;;
22282;SDS011;11310;51.528;21.204;2022-10-20T08:08:02;14.10;;;5.65;;
22282;SDS011;11310;51.528;21.204;2022-10-20T08:10:32;14.75;;;6.25;;
22282;SDS011;11310;51.528;21.204;2022-10-20T08:13:01;13.80;;;6.43;;
22282;SDS011;11310;51.528;21.204;2022-10-20T08:18:05;13.97;;;5.37;;
22282;SDS011;11310;51.528;21.204;2022-10-20T08:20:35;13.25;;;5.53;;
22282;SDS011;11310;51.528;21.204;2022-10-20T08:23:06;16.40;;;5.90;;
22282;SDS011;11310;51.528;21.204;2022-10-20T08:25:35;10.80;;;5.43;;
22282;SDS011;11310;51.528;21.204;2022-10-20T08:28:05;14.82;;;5.72;;
22282;SDS011;11310;51.528;21.204;2022-10-20T08:30:37;13.13;;;5.68;;
22282;SDS011;11310;51.528;21.204;2022-10-20T08:33:14;14.82;;;5.20;;
22282;SDS011;11310;51.528;21.204;2022-10-20T08:35:43;11.25;;;4.88;;
22282;SDS011;11310;51.528;21.204;2022-10-20T08:38:15;11.45;;;5.00;;
22282;SDS011;11310;51.528;21.204;2022-10-20T08:40:45;13.00;;;5.28;;
22282;SDS011;11310;51.528;21.204;2022-10-20T08:43:15;13.27;;;5.57;;
22282;SDS011;11310;51.528;21.204;2022-10-20T08:45:47;13.73;;;5.80;;
22282;SDS011;11310;51.528;21.204;2022-10-20T08:48:41;12.50;;;5.25;;
22282;SDS011;11310;51.528;21.204;2022-10-20T08:51:15;11.05;;;4.60;;
22282;SDS011;11310;51.528;21.204;2022-10-20T08:53:51;12.52;;;6.30;;
22282;SDS011;11310;51.528;21.204;2022-10-20T08:56:23;14.40;;;6.25;;
22282;SDS011;11310;51.528;21.204;2022-10-20T08:58:57;21.65;;;9.60;;
22282;SDS011;11310;51.528;21.204;2022-10-20T09:01:28;21.35;;;9.73;;
22282;SDS011;11310;51.528;21.204;2022-10-20T09:04:04;20.80;;;9.90;;
22282;SDS011;11310;51.528;21.204;2022-10-20T09:06:44;16.67;;;7.43;;
22282;SDS011;11310;51.528;21.204;2022-10-20T09:09:19;18.25;;;8.25;;
22282;SDS011;11310;51.528;21.204;2022-10-20T09:11:50;15.95;;;5.85;;
22282;SDS011;11310;51.528;21.204;2022-10-20T09:14:23;15.43;;;7.03;;
22282;SDS011;11310;51.528;21.204;2022-10-20T09:16:52;13.80;;;6.18;;
22282;SDS011;11310;51.528;21.204;2022-10-20T09:19:28;11.00;;;5.22;;
22282;SDS011;11310;51.528;21.204;2022-10-20T09:22:04;11.65;;;5.80;;
22282;SDS011;11310;51.528;21.204;2022-10-20T09:24:34;14.10;;;6.10;;
22282;SDS011;11310;51.528;21.204;2022-10-20T09:27:18;13.90;;;6.28;;
22282;SDS011;11310;51.528;21.204;2022-10-20T09:29:49;14.15;;;6.22;;
22282;SDS011;11310;51.528;21.204;2022-10-20T09:32:30;12.00;;;5.70;;
22282;SDS011;11310;51.528;21.204;2022-10-20T09:35:19;15.60;;;6.10;;
22282;SDS011;11310;51.528;21.204;2022-10-20T09:37:58;13.23;;;6.28;;
22282;SDS011;11310;51.528;21.204;2022-10-20T09:40:32;15.68;;;5.93;;
22282;SDS011;11310;51.528;21.204;2022-10-20T09:43:06;13.63;;;6.20;;
22282;SDS011;11310;51.528;21.204;2022-10-20T09:45:45;10.75;;;5.50;;
22282;SDS011;11310;51.528;21.204;2022-10-20T09:48:20;12.20;;;5.10;;
22282;SDS011;11310;51.528;21.204;2022-10-20T09:50:54;12.38;;;5.10;;
22282;SDS011;11310;51.528;21.204;2022-10-20T09:55:55;9.23;;;4.50;;
22282;SDS011;11310;51.528;21.204;2022-10-20T09:58:25;10.00;;;4.78;;
22282;SDS011;11310;51.528;21.204;2022-10-20T10:00:58;10.27;;;4.35;;
22282;SDS011;11310;51.528;21.204;2022-10-20T10:03:31;10.48;;;4.07;;
22282;SDS011;11310;51.528;21.204;2022-10-20T10:06:20;12.20;;;5.00;;
22282;SDS011;11310;51.528;21.204;2022-10-20T10:09:03;8.80;;;3.97;;
22282;SDS011;11310;51.528;21.204;2022-10-20T10:12:01;7.88;;;3.47;;
22282;SDS011;11310;51.528;21.204;2022-10-20T10:14:32;7.13;;;3.60;;
22282;SDS011;11310;51.528;21.204;2022-10-20T10:17:03;6.57;;;3.58;;
22282;SDS011;11310;51.528;21.204;2022-10-20T10:19:33;7.90;;;3.38;;
22282;SDS011;11310;51.528;21.204;2022-10-20T10:22:03;7.40;;;3.55;;
22282;SDS011;11310;51.528;21.204;2022-10-20T10:24:38;7.68;;;3.53;;
22282;SDS011;11310;51.528;21.204;2022-10-20T10:27:20;7.18;;;3.30;;
22282;SDS011;11310;51.528;21.204;2022-10-20T10:29:53;8.30;;;3.47;;
22282;SDS011;11310;51.528;21.204;2022-10-20T10:32:23;9.15;;;4.03;;
22282;SDS011;11310;51.528;21.204;2022-10-20T10:37:47;7.05;;;3.22;;
22282;SDS011;11310;51.528;21.204;2022-10-20T10:40:18;10.82;;;3.30;;
22282;SDS011;11310;51.528;21.204;2022-10-20T10:43:03;8.48;;;3.47;;
22282;SDS011;11310;51.528;21.204;2022-10-20T10:45:43;6.68;;;3.28;;
22282;SDS011;11310;51.528;21.204;2022-10-20T10:48:28;7.50;;;3.35;;
22282;SDS011;11310;51.528;21.204;2022-10-20T10:51:17;8.32;;;3.80;;
22282;SDS011;11310;51.528;21.204;2022-10-20T10:54:09;7.65;;;3.13;;
22282;SDS011;11310;51.528;21.204;2022-10-20T10:56:50;9.20;;;2.78;;
22282;SDS011;11310;51.528;21.204;2022-10-20T10:59:25;6.88;;;3.05;;
22282;SDS011;11310;51.528;21.204;2022-10-20T11:05:30;6.53;;;2.20;;
22282;SDS011;11310;51.528;21.204;2022-10-20T11:08:18;4.82;;;2.05;;
22282;SDS011;11310;51.528;21.204;2022-10-20T11:11:08;5.75;;;2.33;;
22282;SDS011;11310;51.528;21.204;2022-10-20T11:13:50;4.93;;;2.03;;
22282;SDS011;11310;51.528;21.204;2022-10-20T11:16:28;5.75;;;2.42;;
22282;SDS011;11310;51.528;21.204;2022-10-20T11:22:23;3.38;;;1.70;;
22282;SDS011;11310;51.528;21.204;2022-10-20T11:25:17;3.38;;;1.73;;
22282;SDS011;11310;51.528;21.204;2022-10-20T11:27:56;4.05;;;1.70;;
22282;SDS011;11310;51.528;21.204;2022-10-20T11:30:26;4.22;;;1.65;;
22282;SDS011;11310;51.528;21.204;2022-10-20T11:32:58;11.25;;;2.28;;
22282;SDS011;11310;51.528;21.204;2022-10-20T11:35:33;4.55;;;1.70;;
22282;SDS011;11310;51.528;21.204;2022-10-20T11:38:12;4.28;;;1.90;;
22282;SDS011;11310;51.528;21.204;2022-10-20T11:40:47;4.43;;;2.10;;
22282;SDS011;11310;51.528;21.204;2022-10-20T11:43:30;3.83;;;1.67;;
22282;SDS011;11310;51.528;21.204;2022-10-20T11:46:07;3.63;;;1.55;;
22282;SDS011;11310;51.528;21.204;2022-10-20T11:48:40;5.30;;;1.70;;
22282;SDS011;11310;51.528;21.204;2022-10-20T11:51:19;5.93;;;1.90;;
22282;SDS011;11310;51.528;21.204;2022-10-20T11:54:12;2.85;;;1.65;;
22282;SDS011;11310;51.528;21.204;2022-10-20T11:56:57;3.78;;;1.58;;
22282;SDS011;11310;51.528;21.204;2022-10-20T11:59:44;2.30;;;1.30;;
22282;SDS011;11310;51.528;21.204;2022-10-20T12:05:48;5.97;;;1.67;;
22282;SDS011;11310;51.528;21.204;2022-10-20T12:11:26;4.32;;;2.05;;
22282;SDS011;11310;51.528;21.204;2022-10-20T12:13:59;3.33;;;1.70;;
22282;SDS011;11310;51.528;21.204;2022-10-20T12:19:45;5.05;;;1.77;;
22282;SDS011;11310;51.528;21.204;2022-10-20T12:22:39;4.55;;;1.90;;
22282;SDS011;11310;51.528;21.204;2022-10-20T12:31:00;4.78;;;2.25;;
22282;SDS011;11310;51.528;21.204;2022-10-20T12:33:35;3.10;;;1.50;;
22282;SDS011;11310;51.528;21.204;2022-10-20T12:36:26;4.50;;;1.85;;
22282;SDS011;11310;51.528;21.204;2022-10-20T12:39:12;6.35;;;2.40;;
22282;SDS011;11310;51.528;21.204;2022-10-20T12:41:59;5.00;;;2.08;;
22282;SDS011;11310;51.528;21.204;2022-10-20T12:44:37;4.35;;;1.73;;
22282;SDS011;11310;51.528;21.204;2022-10-20T12:47:17;4.95;;;1.90;;
22282;SDS011;11310;51.528;21.204;2022-10-20T12:49:54;4.93;;;2.33;;
22282;SDS011;11310;51.528;21.204;2022-10-20T12:52:30;6.40;;;2.10;;
22282;SDS011;11310;51.528;21.204;2022-10-20T12:55:04;5.18;;;2.05;;
22282;SDS011;11310;51.528;21.204;2022-10-20T12:57:39;6.65;;;2.28;;
22282;SDS011;11310;51.528;21.204;2022-10-20T13:03:34;4.15;;;1.70;;
22282;SDS011;11310;51.528;21.204;2022-10-20T13:09:22;6.00;;;2.10;;
22282;SDS011;11310;51.528;21.204;2022-10-20T13:12:02;4.15;;;1.70;;
22282;SDS011;11310;51.528;21.204;2022-10-20T13:14:43;5.32;;;1.67;;
22282;SDS011;11310;51.528;21.204;2022-10-20T13:17:21;5.43;;;2.13;;
22282;SDS011;11310;51.528;21.204;2022-10-20T13:19:56;8.32;;;3.72;;
22282;SDS011;11310;51.528;21.204;2022-10-20T13:22:39;11.02;;;3.80;;
22282;SDS011;11310;51.528;21.204;2022-10-20T13:25:35;13.50;;;5.10;;
22282;SDS011;11310;51.528;21.204;2022-10-20T13:28:13;11.75;;;4.88;;
22282;SDS011;11310;51.528;21.204;2022-10-20T13:33:49;10.68;;;3.40;;
22282;SDS011;11310;51.528;21.204;2022-10-20T13:39:43;7.13;;;3.00;;
22282;SDS011;11310;51.528;21.204;2022-10-20T13:42:28;7.68;;;3.00;;
22282;SDS011;11310;51.528;21.204;2022-10-20T13:45:11;3.90;;;1.85;;
22282;SDS011;11310;51.528;21.204;2022-10-20T13:47:56;3.45;;;1.50;;
22282;SDS011;11310;51.528;21.204;2022-10-20T13:50:39;3.63;;;1.52;;
22282;SDS011;11310;51.528;21.204;2022-10-20T13:53:12;2.70;;;1.20;;
22282;SDS011;11310;51.528;21.204;2022-10-20T13:55:56;4.00;;;1.55;;
22282;SDS011;11310;51.528;21.204;2022-10-20T13:58:41;3.03;;;1.25;;
22282;SDS011;11310;51.528;21.204;2022-10-20T14:01:32;2.25;;;1.15;;
22282;SDS011;11310;51.528;21.204;2022-10-20T14:04:13;1.85;;;1.27;;
22282;SDS011;11310;51.528;21.204;2022-10-20T14:06:54;2.45;;;1.23;;
22282;SDS011;11310;51.528;21.204;2022-10-20T14:09:38;2.30;;;1.30;;
22282;SDS011;11310;51.528;21.204;2022-10-20T14:12:15;2.42;;;1.00;;
22282;SDS011;11310;51.528;21.204;2022-10-20T14:15:00;5.53;;;1.23;;
22282;SDS011;11310;51.528;21.204;2022-10-20T14:17:32;2.65;;;1.20;;
22282;SDS011;11310;51.528;21.204;2022-10-20T14:20:12;4.72;;;1.67;;
22282;SDS011;11310;51.528;21.204;2022-10-20T14:22:46;4.82;;;2.10;;
22282;SDS011;11310;51.528;21.204;2022-10-20T14:25:17;3.78;;;1.75;;
22282;SDS011;11310;51.528;21.204;2022-10-20T14:27:48;6.13;;;2.30;;
22282;SDS011;11310;51.528;21.204;2022-10-20T14:30:25;15.10;;;4.43;;
22282;SDS011;11310;51.528;21.204;2022-10-20T14:32:54;13.52;;;4.50;;
22282;SDS011;11310;51.528;21.204;2022-10-20T14:35:28;10.38;;;3.47;;
22282;SDS011;11310;51.528;21.204;2022-10-20T14:38:01;10.57;;;3.22;;
22282;SDS011;11310;51.528;21.204;2022-10-20T14:40:35;11.27;;;3.22;;
22282;SDS011;11310;51.528;21.204;2022-10-20T14:43:06;6.40;;;2.72;;
22282;SDS011;11310;51.528;21.204;2022-10-20T14:45:50;6.13;;;2.67;;
22282;SDS011;11310;51.528;21.204;2022-10-20T14:48:21;5.30;;;2.58;;
22282;SDS011;11310;51.528;21.204;2022-10-20T14:50:56;4.13;;;2.13;;
22282;SDS011;11310;51.528;21.204;2022-10-20T14:53:28;3.95;;;2.15;;
22282;SDS011;11310;51.528;21.204;2022-10-20T14:56:00;3.13;;;1.70;;
22282;SDS011;11310;51.528;21.204;2022-10-20T14:58:36;2.70;;;1.60;;
22282;SDS011;11310;51.528;21.204;2022-10-20T15:01:14;5.20;;;2.15;;
22282;SDS011;11310;51.528;21.204;2022-10-20T15:04:03;9.30;;;1.87;;
22282;SDS011;11310;51.528;21.204;2022-10-20T15:07:00;4.40;;;1.95;;
22282;SDS011;11310;51.528;21.204;2022-10-20T15:09:37;6.50;;;2.80;;
22282;SDS011;11310;51.528;21.204;2022-10-20T15:12:13;9.32;;;2.90;;
22282;SDS011;11310;51.528;21.204;2022-10-20T15:14:45;20.75;;;5.10;;
22282;SDS011;11310;51.528;21.204;2022-10-20T15:17:36;19.25;;;5.25;;
22282;SDS011;11310;51.528;21.204;2022-10-20T15:23:10;12.75;;;4.38;;
22282;SDS011;11310;51.528;21.204;2022-10-20T15:25:49;15.20;;;5.32;;
22282;SDS011;11310;51.528;21.204;2022-10-20T15:28:24;17.13;;;8.30;;
22282;SDS011;11310;51.528;21.204;2022-10-20T15:30:57;20.80;;;8.57;;
22282;SDS011;11310;51.528;21.204;2022-10-20T15:33:29;16.85;;;7.78;;
22282;SDS011;11310;51.528;21.204;2022-10-20T15:35:59;17.83;;;8.85;;
22282;SDS011;11310;51.528;21.204;2022-10-20T15:38:30;18.33;;;7.97;;
22282;SDS011;11310;51.528;21.204;2022-10-20T15:41:03;20.65;;;8.40;;
22282;SDS011;11310;51.528;21.204;2022-10-20T15:43:46;24.00;;;10.40;;
22282;SDS011;11310;51.528;21.204;2022-10-20T15:46:17;39.35;;;12.05;;
22282;SDS011;11310;51.528;21.204;2022-10-20T15:48:51;41.53;;;14.55;;
22282;SDS011;11310;51.528;21.204;2022-10-20T15:51:20;47.40;;;18.38;;
22282;SDS011;11310;51.528;21.204;2022-10-20T15:53:52;46.85;;;18.38;;
22282;SDS011;11310;51.528;21.204;2022-10-20T15:56:22;57.65;;;20.60;;
22282;SDS011;11310;51.528;21.204;2022-10-20T15:58:53;59.60;;;20.83;;
22282;SDS011;11310;51.528;21.204;2022-10-20T16:01:22;56.38;;;20.75;;